sensor_id;sensor_type;location;lat;lon;timestamp;P1;durP1;ratioP1;P2;durP2;ratioP2
19776;SDS011;10047;42.490;26.012;2023-02-23T00:00:23;6.70;;;3.10;;
19776;SDS011;10047;42.490;26.012;2023-02-23T00:02:56;8.45;;;3.85;;
19776;SDS011;10047;42.490;26.012;2023-02-23T00:05:25;7.90;;;3.20;;
19776;SDS011;10047;42.490;26.012;2023-02-23T00:07:53;7.03;;;3.17;;
19776;SDS011;10047;42.490;26.012;2023-02-23T00:10:18;7.88;;;3.03;;
19776;SDS011;10047;42.490;26.012;2023-02-23T00:12:45;7.32;;;3.50;;
19776;SDS011;10047;42.490;26.012;2023-02-23T00:15:11;7.47;;;3.30;;
19776;SDS011;10047;42.490;26.012;2023-02-23T00:17:37;9.23;;;3.42;;
19776;SDS011;10047;42.490;26.012;2023-02-23T00:20:06;7.85;;;2.90;;
19776;SDS011;10047;42.490;26.012;2023-02-23T00:22:36;8.35;;;3.17;;
19776;SDS011;10047;42.490;26.012;2023-02-23T00:25:08;6.43;;;2.88;;
19776;SDS011;10047;42.490;26.012;2023-02-23T00:27:35;5.82;;;2.85;;
19776;SDS011;10047;42.490;26.012;2023-02-23T00:30:04;5.93;;;2.78;;
19776;SDS011;10047;42.490;26.012;2023-02-23T00:32:31;6.97;;;3.10;;
19776;SDS011;10047;42.490;26.012;2023-02-23T00:34:56;8.35;;;2.90;;
19776;SDS011;10047;42.490;26.012;2023-02-23T00:37:22;7.57;;;3.15;;
19776;SDS011;10047;42.490;26.012;2023-02-23T00:39:48;7.03;;;3.03;;
19776;SDS011;10047;42.490;26.012;2023-02-23T00:42:13;6.45;;;3.00;;
19776;SDS011;10047;42.490;26.012;2023-02-23T00:44:39;5.38;;;2.95;;
19776;SDS011;10047;42.490;26.012;2023-02-23T00:47:06;8.90;;;3.08;;
19776;SDS011;10047;42.490;26.012;2023-02-23T00:49:32;6.15;;;2.80;;
19776;SDS011;10047;42.490;26.012;2023-02-23T00:51:57;6.38;;;2.90;;
19776;SDS011;10047;42.490;26.012;2023-02-23T00:54:24;6.82;;;2.85;;
19776;SDS011;10047;42.490;26.012;2023-02-23T00:56:50;5.35;;;2.65;;
19776;SDS011;10047;42.490;26.012;2023-02-23T00:59:16;6.43;;;2.72;;
19776;SDS011;10047;42.490;26.012;2023-02-23T01:01:42;8.63;;;3.13;;
19776;SDS011;10047;42.490;26.012;2023-02-23T01:04:09;9.57;;;2.85;;
19776;SDS011;10047;42.490;26.012;2023-02-23T01:06:35;8.10;;;3.03;;
19776;SDS011;10047;42.490;26.012;2023-02-23T01:09:05;8.18;;;2.88;;
19776;SDS011;10047;42.490;26.012;2023-02-23T01:11:32;9.07;;;3.27;;
19776;SDS011;10047;42.490;26.012;2023-02-23T01:13:58;7.88;;;2.60;;
19776;SDS011;10047;42.490;26.012;2023-02-23T01:16:26;7.35;;;2.58;;
19776;SDS011;10047;42.490;26.012;2023-02-23T01:18:54;5.80;;;2.90;;
19776;SDS011;10047;42.490;26.012;2023-02-23T01:21:22;6.13;;;2.70;;
19776;SDS011;10047;42.490;26.012;2023-02-23T01:23:50;8.32;;;3.15;;
19776;SDS011;10047;42.490;26.012;2023-02-23T01:26:16;6.88;;;2.83;;
19776;SDS011;10047;42.490;26.012;2023-02-23T01:28:50;6.43;;;3.00;;
19776;SDS011;10047;42.490;26.012;2023-02-23T01:31:16;9.93;;;2.80;;
19776;SDS011;10047;42.490;26.012;2023-02-23T01:33:42;6.13;;;2.28;;
19776;SDS011;10047;42.490;26.012;2023-02-23T01:36:08;5.60;;;2.90;;
19776;SDS011;10047;42.490;26.012;2023-02-23T01:38:33;5.05;;;2.40;;
19776;SDS011;10047;42.490;26.012;2023-02-23T01:40:59;6.50;;;2.55;;
19776;SDS011;10047;42.490;26.012;2023-02-23T01:43:24;7.45;;;3.10;;
19776;SDS011;10047;42.490;26.012;2023-02-23T01:45:53;7.18;;;2.80;;
19776;SDS011;10047;42.490;26.012;2023-02-23T01:48:21;8.75;;;2.80;;
19776;SDS011;10047;42.490;26.012;2023-02-23T01:50:53;4.90;;;2.80;;
19776;SDS011;10047;42.490;26.012;2023-02-23T01:53:24;7.90;;;2.70;;
19776;SDS011;10047;42.490;26.012;2023-02-23T01:55:58;5.35;;;2.50;;
19776;SDS011;10047;42.490;26.012;2023-02-23T01:58:27;4.88;;;2.53;;
19776;SDS011;10047;42.490;26.012;2023-02-23T02:00:55;7.20;;;2.75;;
19776;SDS011;10047;42.490;26.012;2023-02-23T02:03:26;5.65;;;2.95;;
19776;SDS011;10047;42.490;26.012;2023-02-23T02:05:57;8.57;;;2.80;;
19776;SDS011;10047;42.490;26.012;2023-02-23T02:08:26;6.05;;;2.53;;
19776;SDS011;10047;42.490;26.012;2023-02-23T02:10:55;7.13;;;2.90;;
19776;SDS011;10047;42.490;26.012;2023-02-23T02:13:22;8.18;;;3.17;;
19776;SDS011;10047;42.490;26.012;2023-02-23T02:15:59;7.90;;;3.10;;
19776;SDS011;10047;42.490;26.012;2023-02-23T02:26:54;7.45;;;2.88;;
19776;SDS011;10047;42.490;26.012;2023-02-23T02:43:58;6.20;;;2.75;;
19776;SDS011;10047;42.490;26.012;2023-02-23T02:46:34;6.80;;;3.00;;
19776;SDS011;10047;42.490;26.012;2023-02-23T02:49:10;6.93;;;3.15;;
19776;SDS011;10047;42.490;26.012;2023-02-23T02:51:54;6.15;;;2.70;;
19776;SDS011;10047;42.490;26.012;2023-02-23T02:56:55;8.32;;;3.50;;
19776;SDS011;10047;42.490;26.012;2023-02-23T02:59:24;9.43;;;3.20;;
19776;SDS011;10047;42.490;26.012;2023-02-23T03:02:18;9.25;;;3.00;;
19776;SDS011;10047;42.490;26.012;2023-02-23T03:05:11;8.10;;;2.90;;
19776;SDS011;10047;42.490;26.012;2023-02-23T03:26:23;9.25;;;4.45;;
19776;SDS011;10047;42.490;26.012;2023-02-23T03:38:10;6.72;;;3.40;;
19776;SDS011;10047;42.490;26.012;2023-02-23T03:41:08;5.78;;;3.20;;
19776;SDS011;10047;42.490;26.012;2023-02-23T03:43:57;7.22;;;3.53;;
19776;SDS011;10047;42.490;26.012;2023-02-23T03:46:43;6.72;;;3.33;;
19776;SDS011;10047;42.490;26.012;2023-02-23T03:49:32;7.10;;;3.72;;
19776;SDS011;10047;42.490;26.012;2023-02-23T03:52:20;9.55;;;3.40;;
19776;SDS011;10047;42.490;26.012;2023-02-23T03:55:11;8.18;;;3.38;;
19776;SDS011;10047;42.490;26.012;2023-02-23T04:00:50;16.05;;;8.57;;
19776;SDS011;10047;42.490;26.012;2023-02-23T04:03:39;12.27;;;6.72;;
19776;SDS011;10047;42.490;26.012;2023-02-23T04:06:27;11.65;;;5.90;;
19776;SDS011;10047;42.490;26.012;2023-02-23T04:09:16;8.35;;;4.60;;
19776;SDS011;10047;42.490;26.012;2023-02-23T04:14:55;12.15;;;4.50;;
19776;SDS011;10047;42.490;26.012;2023-02-23T04:17:27;10.57;;;4.55;;
19776;SDS011;10047;42.490;26.012;2023-02-23T04:19:53;7.80;;;4.55;;
19776;SDS011;10047;42.490;26.012;2023-02-23T04:22:20;12.50;;;4.75;;
19776;SDS011;10047;42.490;26.012;2023-02-23T04:24:47;8.88;;;5.05;;
19776;SDS011;10047;42.490;26.012;2023-02-23T04:27:13;8.52;;;4.50;;
19776;SDS011;10047;42.490;26.012;2023-02-23T04:29:39;9.43;;;4.40;;
19776;SDS011;10047;42.490;26.012;2023-02-23T04:32:05;13.38;;;4.97;;
19776;SDS011;10047;42.490;26.012;2023-02-23T04:34:31;22.58;;;5.85;;
19776;SDS011;10047;42.490;26.012;2023-02-23T04:36:57;23.88;;;10.05;;
19776;SDS011;10047;42.490;26.012;2023-02-23T04:39:22;25.65;;;12.45;;
19776;SDS011;10047;42.490;26.012;2023-02-23T04:41:48;23.33;;;11.25;;
19776;SDS011;10047;42.490;26.012;2023-02-23T04:44:14;21.92;;;9.77;;
19776;SDS011;10047;42.490;26.012;2023-02-23T04:46:40;14.30;;;6.57;;
19776;SDS011;10047;42.490;26.012;2023-02-23T04:49:05;10.93;;;5.50;;
19776;SDS011;10047;42.490;26.012;2023-02-23T04:51:31;14.73;;;6.35;;
19776;SDS011;10047;42.490;26.012;2023-02-23T04:53:57;15.02;;;7.20;;
19776;SDS011;10047;42.490;26.012;2023-02-23T04:56:23;16.42;;;7.30;;
19776;SDS011;10047;42.490;26.012;2023-02-23T04:58:49;11.20;;;6.57;;
19776;SDS011;10047;42.490;26.012;2023-02-23T05:01:15;11.75;;;6.20;;
19776;SDS011;10047;42.490;26.012;2023-02-23T05:03:40;9.32;;;5.78;;
19776;SDS011;10047;42.490;26.012;2023-02-23T05:06:06;8.73;;;6.00;;
19776;SDS011;10047;42.490;26.012;2023-02-23T05:08:31;11.52;;;5.68;;
19776;SDS011;10047;42.490;26.012;2023-02-23T05:10:57;18.33;;;7.88;;
19776;SDS011;10047;42.490;26.012;2023-02-23T05:13:22;14.88;;;8.13;;
19776;SDS011;10047;42.490;26.012;2023-02-23T05:15:48;15.00;;;8.55;;
19776;SDS011;10047;42.490;26.012;2023-02-23T05:18:13;16.50;;;9.27;;
19776;SDS011;10047;42.490;26.012;2023-02-23T05:20:41;17.13;;;8.55;;
19776;SDS011;10047;42.490;26.012;2023-02-23T05:23:09;12.45;;;7.65;;
19776;SDS011;10047;42.490;26.012;2023-02-23T05:25:36;13.10;;;7.15;;
19776;SDS011;10047;42.490;26.012;2023-02-23T05:28:03;18.65;;;9.65;;
19776;SDS011;10047;42.490;26.012;2023-02-23T05:30:29;17.40;;;8.80;;
19776;SDS011;10047;42.490;26.012;2023-02-23T05:32:54;13.30;;;7.05;;
19776;SDS011;10047;42.490;26.012;2023-02-23T05:35:19;13.27;;;6.07;;
19776;SDS011;10047;42.490;26.012;2023-02-23T05:37:45;11.57;;;5.20;;
19776;SDS011;10047;42.490;26.012;2023-02-23T05:40:10;14.98;;;5.78;;
19776;SDS011;10047;42.490;26.012;2023-02-23T05:42:36;14.65;;;5.32;;
19776;SDS011;10047;42.490;26.012;2023-02-23T05:45:02;11.63;;;6.45;;
19776;SDS011;10047;42.490;26.012;2023-02-23T05:47:29;13.52;;;8.48;;
19776;SDS011;10047;42.490;26.012;2023-02-23T05:49:55;14.35;;;7.05;;
19776;SDS011;10047;42.490;26.012;2023-02-23T05:52:20;14.73;;;6.43;;
19776;SDS011;10047;42.490;26.012;2023-02-23T05:54:46;15.40;;;6.35;;
19776;SDS011;10047;42.490;26.012;2023-02-23T05:57:11;15.07;;;5.80;;
19776;SDS011;10047;42.490;26.012;2023-02-23T05:59:37;11.75;;;6.07;;
19776;SDS011;10047;42.490;26.012;2023-02-23T06:02:02;14.95;;;6.85;;
19776;SDS011;10047;42.490;26.012;2023-02-23T06:04:31;15.75;;;7.60;;
19776;SDS011;10047;42.490;26.012;2023-02-23T06:06:58;15.30;;;8.23;;
19776;SDS011;10047;42.490;26.012;2023-02-23T06:09:23;13.85;;;7.45;;
19776;SDS011;10047;42.490;26.012;2023-02-23T06:11:49;14.55;;;7.65;;
19776;SDS011;10047;42.490;26.012;2023-02-23T06:14:15;13.23;;;6.97;;
19776;SDS011;10047;42.490;26.012;2023-02-23T06:16:40;14.57;;;8.05;;
19776;SDS011;10047;42.490;26.012;2023-02-23T06:19:09;21.65;;;9.02;;
19776;SDS011;10047;42.490;26.012;2023-02-23T06:21:35;13.00;;;7.50;;
19776;SDS011;10047;42.490;26.012;2023-02-23T06:24:00;12.88;;;7.47;;
19776;SDS011;10047;42.490;26.012;2023-02-23T06:26:26;12.50;;;7.80;;
19776;SDS011;10047;42.490;26.012;2023-02-23T06:28:52;18.55;;;9.27;;
19776;SDS011;10047;42.490;26.012;2023-02-23T06:31:18;14.50;;;7.55;;
19776;SDS011;10047;42.490;26.012;2023-02-23T06:33:43;14.02;;;7.13;;
19776;SDS011;10047;42.490;26.012;2023-02-23T06:36:08;12.23;;;6.60;;
19776;SDS011;10047;42.490;26.012;2023-02-23T06:38:34;10.25;;;6.13;;
19776;SDS011;10047;42.490;26.012;2023-02-23T06:41:05;10.82;;;6.03;;
19776;SDS011;10047;42.490;26.012;2023-02-23T06:43:32;12.80;;;5.07;;
19776;SDS011;10047;42.490;26.012;2023-02-23T06:45:57;11.35;;;5.38;;
19776;SDS011;10047;42.490;26.012;2023-02-23T06:48:22;10.80;;;4.85;;
19776;SDS011;10047;42.490;26.012;2023-02-23T06:50:48;9.02;;;5.13;;
19776;SDS011;10047;42.490;26.012;2023-02-23T06:53:13;9.65;;;5.18;;
19776;SDS011;10047;42.490;26.012;2023-02-23T06:55:39;8.77;;;4.50;;
19776;SDS011;10047;42.490;26.012;2023-02-23T06:58:04;9.90;;;4.85;;
19776;SDS011;10047;42.490;26.012;2023-02-23T07:00:32;9.07;;;5.18;;
19776;SDS011;10047;42.490;26.012;2023-02-23T07:02:57;8.93;;;5.25;;
19776;SDS011;10047;42.490;26.012;2023-02-23T07:05:24;13.23;;;5.53;;
19776;SDS011;10047;42.490;26.012;2023-02-23T07:07:49;10.05;;;5.55;;
19776;SDS011;10047;42.490;26.012;2023-02-23T07:10:16;13.07;;;6.50;;
19776;SDS011;10047;42.490;26.012;2023-02-23T07:12:42;9.40;;;5.88;;
19776;SDS011;10047;42.490;26.012;2023-02-23T07:15:07;12.50;;;5.72;;
19776;SDS011;10047;42.490;26.012;2023-02-23T07:17:35;10.05;;;5.82;;
19776;SDS011;10047;42.490;26.012;2023-02-23T07:20:01;9.80;;;5.80;;
19776;SDS011;10047;42.490;26.012;2023-02-23T07:22:26;14.38;;;5.95;;
19776;SDS011;10047;42.490;26.012;2023-02-23T07:24:54;11.38;;;6.53;;
19776;SDS011;10047;42.490;26.012;2023-02-23T07:27:20;12.38;;;6.45;;
19776;SDS011;10047;42.490;26.012;2023-02-23T07:29:46;11.00;;;6.10;;
19776;SDS011;10047;42.490;26.012;2023-02-23T07:32:11;13.93;;;6.22;;
19776;SDS011;10047;42.490;26.012;2023-02-23T07:34:37;10.82;;;5.70;;
19776;SDS011;10047;42.490;26.012;2023-02-23T07:37:03;11.50;;;5.82;;
19776;SDS011;10047;42.490;26.012;2023-02-23T07:39:28;12.57;;;6.35;;
19776;SDS011;10047;42.490;26.012;2023-02-23T07:41:54;14.40;;;5.97;;
19776;SDS011;10047;42.490;26.012;2023-02-23T07:44:20;12.55;;;6.75;;
19776;SDS011;10047;42.490;26.012;2023-02-23T07:46:46;16.20;;;6.55;;
19776;SDS011;10047;42.490;26.012;2023-02-23T07:49:11;13.77;;;7.85;;
19776;SDS011;10047;42.490;26.012;2023-02-23T07:51:38;15.32;;;7.95;;
19776;SDS011;10047;42.490;26.012;2023-02-23T07:54:04;11.05;;;6.97;;
19776;SDS011;10047;42.490;26.012;2023-02-23T07:56:30;12.45;;;6.97;;
19776;SDS011;10047;42.490;26.012;2023-02-23T07:58:56;13.27;;;7.30;;
19776;SDS011;10047;42.490;26.012;2023-02-23T08:01:22;16.35;;;7.90;;
19776;SDS011;10047;42.490;26.012;2023-02-23T08:03:47;13.55;;;8.27;;
19776;SDS011;10047;42.490;26.012;2023-02-23T08:06:14;13.57;;;7.65;;
19776;SDS011;10047;42.490;26.012;2023-02-23T08:08:41;13.45;;;8.38;;
19776;SDS011;10047;42.490;26.012;2023-02-23T08:11:07;14.55;;;9.45;;
19776;SDS011;10047;42.490;26.012;2023-02-23T08:13:32;16.70;;;9.00;;
19776;SDS011;10047;42.490;26.012;2023-02-23T08:15:58;18.17;;;11.25;;
19776;SDS011;10047;42.490;26.012;2023-02-23T08:18:23;17.85;;;11.05;;
19776;SDS011;10047;42.490;26.012;2023-02-23T08:20:49;16.75;;;11.20;;
19776;SDS011;10047;42.490;26.012;2023-02-23T08:23:15;17.52;;;10.88;;
19776;SDS011;10047;42.490;26.012;2023-02-23T08:25:42;23.17;;;11.70;;
19776;SDS011;10047;42.490;26.012;2023-02-23T08:28:08;22.10;;;12.73;;
19776;SDS011;10047;42.490;26.012;2023-02-23T08:30:33;20.33;;;12.10;;
19776;SDS011;10047;42.490;26.012;2023-02-23T08:32:58;22.85;;;12.88;;
19776;SDS011;10047;42.490;26.012;2023-02-23T08:35:25;20.80;;;12.18;;
19776;SDS011;10047;42.490;26.012;2023-02-23T08:37:51;24.52;;;14.40;;
19776;SDS011;10047;42.490;26.012;2023-02-23T08:40:17;20.50;;;13.50;;
19776;SDS011;10047;42.490;26.012;2023-02-23T08:42:45;26.90;;;15.13;;
19776;SDS011;10047;42.490;26.012;2023-02-23T08:45:13;22.23;;;13.10;;
19776;SDS011;10047;42.490;26.012;2023-02-23T08:47:39;20.00;;;13.07;;
19776;SDS011;10047;42.490;26.012;2023-02-23T08:50:04;20.15;;;12.25;;
19776;SDS011;10047;42.490;26.012;2023-02-23T08:52:30;17.52;;;12.07;;
19776;SDS011;10047;42.490;26.012;2023-02-23T08:54:56;18.45;;;12.07;;
19776;SDS011;10047;42.490;26.012;2023-02-23T08:57:21;17.88;;;11.98;;
19776;SDS011;10047;42.490;26.012;2023-02-23T08:59:47;16.85;;;9.90;;
19776;SDS011;10047;42.490;26.012;2023-02-23T09:02:13;16.58;;;10.32;;
19776;SDS011;10047;42.490;26.012;2023-02-23T09:04:39;20.33;;;12.32;;
19776;SDS011;10047;42.490;26.012;2023-02-23T09:07:09;19.73;;;12.93;;
19776;SDS011;10047;42.490;26.012;2023-02-23T09:09:38;22.35;;;12.35;;
19776;SDS011;10047;42.490;26.012;2023-02-23T09:12:04;18.20;;;11.38;;
19776;SDS011;10047;42.490;26.012;2023-02-23T09:14:29;24.50;;;12.65;;
19776;SDS011;10047;42.490;26.012;2023-02-23T09:16:56;20.77;;;12.48;;
19776;SDS011;10047;42.490;26.012;2023-02-23T09:19:21;20.92;;;12.00;;
19776;SDS011;10047;42.490;26.012;2023-02-23T09:21:47;17.08;;;10.57;;
19776;SDS011;10047;42.490;26.012;2023-02-23T09:24:12;18.92;;;12.15;;
19776;SDS011;10047;42.490;26.012;2023-02-23T09:26:37;18.75;;;12.02;;
19776;SDS011;10047;42.490;26.012;2023-02-23T09:29:06;18.02;;;10.90;;
19776;SDS011;10047;42.490;26.012;2023-02-23T09:31:32;20.83;;;11.75;;
19776;SDS011;10047;42.490;26.012;2023-02-23T09:33:58;25.30;;;13.60;;
19776;SDS011;10047;42.490;26.012;2023-02-23T09:36:25;20.45;;;12.90;;
19776;SDS011;10047;42.490;26.012;2023-02-23T09:38:52;16.88;;;12.30;;
19776;SDS011;10047;42.490;26.012;2023-02-23T09:41:28;24.73;;;15.40;;
19776;SDS011;10047;42.490;26.012;2023-02-23T09:51:55;19.30;;;12.95;;
19776;SDS011;10047;42.490;26.012;2023-02-23T09:54:23;22.58;;;14.30;;
19776;SDS011;10047;42.490;26.012;2023-02-23T09:56:53;24.05;;;15.63;;
19776;SDS011;10047;42.490;26.012;2023-02-23T09:59:23;25.95;;;16.00;;
19776;SDS011;10047;42.490;26.012;2023-02-23T10:04:39;23.55;;;16.35;;
19776;SDS011;10047;42.490;26.012;2023-02-23T10:07:22;20.90;;;15.48;;
19776;SDS011;10047;42.490;26.012;2023-02-23T10:12:49;25.35;;;14.60;;
19776;SDS011;10047;42.490;26.012;2023-02-23T10:24:10;23.50;;;16.70;;
19776;SDS011;10047;42.490;26.012;2023-02-23T10:26:24;20.85;;;16.38;;
19776;SDS011;10047;42.490;26.012;2023-02-23T10:28:55;25.08;;;15.45;;
19776;SDS011;10047;42.490;26.012;2023-02-23T10:31:32;18.45;;;13.25;;
19776;SDS011;10047;42.490;26.012;2023-02-23T10:34:10;23.15;;;14.88;;
19776;SDS011;10047;42.490;26.012;2023-02-23T10:36:41;26.00;;;15.05;;
19776;SDS011;10047;42.490;26.012;2023-02-23T10:39:11;20.80;;;15.90;;
19776;SDS011;10047;42.490;26.012;2023-02-23T10:41:38;22.67;;;15.32;;
19776;SDS011;10047;42.490;26.012;2023-02-23T10:44:09;21.55;;;15.52;;
19776;SDS011;10047;42.490;26.012;2023-02-23T10:46:41;21.52;;;14.23;;
19776;SDS011;10047;42.490;26.012;2023-02-23T10:49:16;19.25;;;13.90;;
19776;SDS011;10047;42.490;26.012;2023-02-23T10:51:46;18.60;;;13.13;;
19776;SDS011;10047;42.490;26.012;2023-02-23T10:57:02;17.90;;;13.13;;
19776;SDS011;10047;42.490;26.012;2023-02-23T10:59:30;19.35;;;13.00;;
19776;SDS011;10047;42.490;26.012;2023-02-23T11:01:55;21.92;;;12.20;;
19776;SDS011;10047;42.490;26.012;2023-02-23T11:04:25;17.08;;;11.65;;
19776;SDS011;10047;42.490;26.012;2023-02-23T11:07:14;18.52;;;12.35;;
19776;SDS011;10047;42.490;26.012;2023-02-23T11:09:41;20.52;;;12.48;;
19776;SDS011;10047;42.490;26.012;2023-02-23T11:14:51;20.00;;;11.48;;
19776;SDS011;10047;42.490;26.012;2023-02-23T11:17:34;18.40;;;12.00;;
19776;SDS011;10047;42.490;26.012;2023-02-23T11:22:29;18.73;;;12.65;;
19776;SDS011;10047;42.490;26.012;2023-02-23T11:24:56;15.55;;;11.38;;
19776;SDS011;10047;42.490;26.012;2023-02-23T11:27:23;18.90;;;11.07;;
19776;SDS011;10047;42.490;26.012;2023-02-23T11:29:50;21.58;;;12.88;;
19776;SDS011;10047;42.490;26.012;2023-02-23T11:32:19;16.77;;;11.15;;
19776;SDS011;10047;42.490;26.012;2023-02-23T11:35:09;16.92;;;10.73;;
19776;SDS011;10047;42.490;26.012;2023-02-23T11:37:38;17.35;;;11.00;;
19776;SDS011;10047;42.490;26.012;2023-02-23T11:40:17;22.73;;;13.10;;
19776;SDS011;10047;42.490;26.012;2023-02-23T11:42:55;15.50;;;10.00;;
19776;SDS011;10047;42.490;26.012;2023-02-23T11:45:31;17.85;;;10.18;;
19776;SDS011;10047;42.490;26.012;2023-02-23T11:48:15;15.88;;;10.10;;
19776;SDS011;10047;42.490;26.012;2023-02-23T11:50:55;16.35;;;10.95;;
19776;SDS011;10047;42.490;26.012;2023-02-23T11:55:57;17.13;;;9.38;;
19776;SDS011;10047;42.490;26.012;2023-02-23T12:01:07;16.20;;;9.25;;
19776;SDS011;10047;42.490;26.012;2023-02-23T12:03:38;13.30;;;9.98;;
19776;SDS011;10047;42.490;26.012;2023-02-23T12:06:11;16.60;;;9.70;;
19776;SDS011;10047;42.490;26.012;2023-02-23T12:08:54;14.40;;;9.55;;
19776;SDS011;10047;42.490;26.012;2023-02-23T12:11:26;16.98;;;9.57;;
19776;SDS011;10047;42.490;26.012;2023-02-23T12:16:33;14.52;;;10.00;;
19776;SDS011;10047;42.490;26.012;2023-02-23T12:19:18;17.20;;;8.68;;
19776;SDS011;10047;42.490;26.012;2023-02-23T12:40:58;18.95;;;12.50;;
19776;SDS011;10047;42.490;26.012;2023-02-23T12:43:39;17.80;;;11.65;;
19776;SDS011;10047;42.490;26.012;2023-02-23T12:46:25;19.08;;;12.73;;
19776;SDS011;10047;42.490;26.012;2023-02-23T12:51:32;23.63;;;17.23;;
19776;SDS011;10047;42.490;26.012;2023-02-23T12:53:58;26.35;;;16.35;;
19776;SDS011;10047;42.490;26.012;2023-02-23T13:02:11;25.27;;;14.90;;
19776;SDS011;10047;42.490;26.012;2023-02-23T13:12:57;18.85;;;13.52;;
19776;SDS011;10047;42.490;26.012;2023-02-23T13:18:20;23.17;;;14.90;;
19776;SDS011;10047;42.490;26.012;2023-02-23T13:21:33;19.15;;;13.68;;
19776;SDS011;10047;42.490;26.012;2023-02-23T13:31:55;24.67;;;14.85;;
19776;SDS011;10047;42.490;26.012;2023-02-23T13:34:24;22.95;;;15.02;;
19776;SDS011;10047;42.490;26.012;2023-02-23T13:36:57;24.13;;;13.38;;
19776;SDS011;10047;42.490;26.012;2023-02-23T13:48:12;20.55;;;11.30;;
19776;SDS011;10047;42.490;26.012;2023-02-23T13:53:43;22.83;;;11.85;;
19776;SDS011;10047;42.490;26.012;2023-02-23T13:58:59;18.00;;;12.55;;
19776;SDS011;10047;42.490;26.012;2023-02-23T14:01:28;17.80;;;11.10;;
19776;SDS011;10047;42.490;26.012;2023-02-23T14:03:58;16.85;;;10.75;;
19776;SDS011;10047;42.490;26.012;2023-02-23T14:06:27;20.33;;;11.98;;
19776;SDS011;10047;42.490;26.012;2023-02-23T14:09:08;21.02;;;11.68;;
19776;SDS011;10047;42.490;26.012;2023-02-23T14:14:14;15.80;;;9.20;;
19776;SDS011;10047;42.490;26.012;2023-02-23T14:20:04;19.15;;;9.40;;
19776;SDS011;10047;42.490;26.012;2023-02-23T14:23:04;17.83;;;10.45;;
19776;SDS011;10047;42.490;26.012;2023-02-23T14:28:32;16.58;;;8.82;;
19776;SDS011;10047;42.490;26.012;2023-02-23T14:31:14;21.00;;;9.57;;
19776;SDS011;10047;42.490;26.012;2023-02-23T14:38:50;17.13;;;8.48;;
19776;SDS011;10047;42.490;26.012;2023-02-23T14:41:28;20.15;;;8.65;;
19776;SDS011;10047;42.490;26.012;2023-02-23T14:43:57;15.32;;;9.00;;
19776;SDS011;10047;42.490;26.012;2023-02-23T14:46:24;16.45;;;8.60;;
19776;SDS011;10047;42.490;26.012;2023-02-23T14:49:25;23.92;;;10.18;;
19776;SDS011;10047;42.490;26.012;2023-02-23T14:51:44;12.45;;;9.82;;
19776;SDS011;10047;42.490;26.012;2023-02-23T14:54:26;12.00;;;6.57;;
19776;SDS011;10047;42.490;26.012;2023-02-23T14:56:56;15.32;;;7.00;;
19776;SDS011;10047;42.490;26.012;2023-02-23T14:59:24;15.00;;;7.22;;
19776;SDS011;10047;42.490;26.012;2023-02-23T15:01:52;18.17;;;7.65;;
19776;SDS011;10047;42.490;26.012;2023-02-23T15:04:20;15.75;;;7.00;;
19776;SDS011;10047;42.490;26.012;2023-02-23T15:06:54;13.32;;;6.30;;
19776;SDS011;10047;42.490;26.012;2023-02-23T15:09:37;11.50;;;6.50;;
19776;SDS011;10047;42.490;26.012;2023-02-23T15:12:39;16.67;;;7.28;;
19776;SDS011;10047;42.490;26.012;2023-02-23T15:15:02;18.95;;;7.88;;
19776;SDS011;10047;42.490;26.012;2023-02-23T15:17:31;14.43;;;6.95;;
19776;SDS011;10047;42.490;26.012;2023-02-23T15:19:59;16.63;;;6.60;;
19776;SDS011;10047;42.490;26.012;2023-02-23T15:22:37;16.20;;;6.60;;
19776;SDS011;10047;42.490;26.012;2023-02-23T15:25:16;16.80;;;7.63;;
19776;SDS011;10047;42.490;26.012;2023-02-23T15:27:44;14.15;;;7.63;;
19776;SDS011;10047;42.490;26.012;2023-02-23T15:32:57;17.15;;;7.55;;
19776;SDS011;10047;42.490;26.012;2023-02-23T15:38:28;11.13;;;6.20;;
19776;SDS011;10047;42.490;26.012;2023-02-23T15:40:59;16.55;;;9.60;;
19776;SDS011;10047;42.490;26.012;2023-02-23T15:43:28;15.75;;;8.68;;
19776;SDS011;10047;42.490;26.012;2023-02-23T15:45:57;13.65;;;6.85;;
19776;SDS011;10047;42.490;26.012;2023-02-23T15:48:51;15.98;;;6.18;;
19776;SDS011;10047;42.490;26.012;2023-02-23T15:51:20;15.75;;;5.53;;
19776;SDS011;10047;42.490;26.012;2023-02-23T15:53:53;13.15;;;6.55;;
19776;SDS011;10047;42.490;26.012;2023-02-23T15:56:23;12.85;;;6.22;;
19776;SDS011;10047;42.490;26.012;2023-02-23T15:58:53;15.55;;;6.35;;
19776;SDS011;10047;42.490;26.012;2023-02-23T16:06:25;14.40;;;5.82;;
19776;SDS011;10047;42.490;26.012;2023-02-23T16:09:00;15.30;;;6.13;;
19776;SDS011;10047;42.490;26.012;2023-02-23T16:12:10;22.10;;;6.40;;
19776;SDS011;10047;42.490;26.012;2023-02-23T16:14:52;15.13;;;6.57;;
19776;SDS011;10047;42.490;26.012;2023-02-23T16:17:25;13.60;;;5.15;;
19776;SDS011;10047;42.490;26.012;2023-02-23T16:19:54;11.80;;;4.88;;
19776;SDS011;10047;42.490;26.012;2023-02-23T16:22:35;16.67;;;4.85;;
19776;SDS011;10047;42.490;26.012;2023-02-23T16:25:09;10.32;;;4.38;;
19776;SDS011;10047;42.490;26.012;2023-02-23T16:27:37;10.50;;;4.10;;
19776;SDS011;10047;42.490;26.012;2023-02-23T16:32:48;13.15;;;4.65;;
19776;SDS011;10047;42.490;26.012;2023-02-23T16:39:01;10.63;;;4.10;;
19776;SDS011;10047;42.490;26.012;2023-02-23T16:41:36;17.58;;;3.97;;
19776;SDS011;10047;42.490;26.012;2023-02-23T16:44:03;10.43;;;4.47;;
19776;SDS011;10047;42.490;26.012;2023-02-23T16:46:53;9.63;;;4.50;;
19776;SDS011;10047;42.490;26.012;2023-02-23T16:49:27;11.43;;;4.70;;
19776;SDS011;10047;42.490;26.012;2023-02-23T16:51:56;11.52;;;4.75;;
19776;SDS011;10047;42.490;26.012;2023-02-23T16:54:23;11.13;;;4.22;;
19776;SDS011;10047;42.490;26.012;2023-02-23T16:56:49;9.57;;;4.10;;
19776;SDS011;10047;42.490;26.012;2023-02-23T16:59:19;10.27;;;4.47;;
19776;SDS011;10047;42.490;26.012;2023-02-23T17:01:45;12.00;;;3.70;;
19776;SDS011;10047;42.490;26.012;2023-02-23T17:04:12;10.23;;;3.72;;
19776;SDS011;10047;42.490;26.012;2023-02-23T17:06:39;11.48;;;4.15;;
19776;SDS011;10047;42.490;26.012;2023-02-23T17:09:07;9.25;;;4.00;;
19776;SDS011;10047;42.490;26.012;2023-02-23T17:11:36;10.85;;;3.60;;
19776;SDS011;10047;42.490;26.012;2023-02-23T17:14:02;14.30;;;4.47;;
19776;SDS011;10047;42.490;26.012;2023-02-23T17:16:28;7.95;;;3.60;;
19776;SDS011;10047;42.490;26.012;2023-02-23T17:18:53;9.50;;;3.70;;
19776;SDS011;10047;42.490;26.012;2023-02-23T17:21:19;9.23;;;3.15;;
19776;SDS011;10047;42.490;26.012;2023-02-23T17:23:47;9.65;;;3.00;;
19776;SDS011;10047;42.490;26.012;2023-02-23T17:26:15;7.53;;;3.08;;
19776;SDS011;10047;42.490;26.012;2023-02-23T17:28:43;11.23;;;3.58;;
19776;SDS011;10047;42.490;26.012;2023-02-23T17:31:08;9.05;;;3.17;;
19776;SDS011;10047;42.490;26.012;2023-02-23T17:33:35;11.20;;;3.00;;
19776;SDS011;10047;42.490;26.012;2023-02-23T17:36:05;9.38;;;3.40;;
19776;SDS011;10047;42.490;26.012;2023-02-23T17:38:33;12.18;;;3.63;;
19776;SDS011;10047;42.490;26.012;2023-02-23T17:41:00;10.93;;;3.22;;
19776;SDS011;10047;42.490;26.012;2023-02-23T17:43:28;12.35;;;4.68;;
19776;SDS011;10047;42.490;26.012;2023-02-23T17:45:53;12.43;;;3.38;;